Latest Weather Observations for Mudgee

IDN60801

Issued at 9:32 pm EST Tuesday 21 April 2015 (issued every 30 minutes, with the page automatically refreshed every 10 minutes)

About weather observations | Map of weather stations | Latest weather observations for NSW | Other Formats
Station Details ID: 062101 Name: MUDGEE AIRPORT AWS Lat: -32.56 Lon: 149.61 Height: 471.0 m
Data from the previous 72 hours. | See also: Recent months at Mudgee
Date/Time
EST
Temp
°C
App
Temp
°C
Dew
Point
Rel
Hum
%
Delta-T
°C
Wind Press
QNH
hPa
Press
MSL
hPa
Rain
since 9 am
mm
Dir
 
Spd
km/h
Gust
km/h
Spd
kts
Gust
kts
21/09:30pm 10.5 8.3 9.3 92 0.6 SSE 11 20 6 11 1018.5 1017.6 16.8
21/09:00pm 10.4 5.5 9.8 96 0.3 SSE 26 37 14 20 1018.7 1017.8 16.4
21/08:30pm 10.4 7.2 10.1 98 0.2 S 17 24 9 13 1018.8 1017.9 15.4
21/08:00pm 10.3 9.0 10.0 98 0.2 S 7 11 4 6 1019.5 1018.6 14.0
21/07:30pm 10.5 8.5 10.2 98 0.2 S 11 13 6 7 1019.8 1018.9 13.0
21/07:00pm 10.6 9.0 10.3 98 0.2 SSE 9 11 5 6 1020.0 1019.1 12.2
21/06:30pm 11.0 9.0 10.2 95 0.4 S 11 15 6 8 1019.9 1019.0 11.4
21/06:00pm 11.2 10.0 10.3 94 0.5 S 7 11 4 6 1020.0 1019.1 10.2
21/05:30pm 11.4 10.4 10.3 93 0.6 S 6 7 3 4 1019.7 1018.8 9.8
21/05:00pm 12.0 9.6 10.1 88 1.0 S 13 15 7 8 1019.2 1018.4 9.2
21/04:30pm 13.2 10.4 8.5 73 2.4 S 13 17 7 9 1019.0 1018.2 8.6
21/04:00pm 13.3 9.2 8.6 73 2.4 S 20 28 11 15 1018.8 1017.9 8.6
21/03:30pm 12.4 9.4 9.2 81 1.7 S 15 22 8 12 1018.8 1017.9 8.6
21/03:00pm 11.8 8.8 9.4 85 1.2 S 15 24 8 13 1018.7 1017.8 8.6
21/02:30pm 11.5 8.2 9.6 88 1.0 S 17 20 9 11 1018.9 1018.0 8.6
21/02:00pm 11.4 8.9 9.8 90 0.8 SSE 13 20 7 11 1019.0 1018.2 8.6
21/01:30pm 11.4 8.3 10.3 93 0.6 S 17 24 9 13 1018.7 1017.8 8.6
21/01:00pm 11.3 7.8 10.2 93 0.6 SSE 19 28 10 15 1019.2 1018.4 8.2
21/12:30pm 11.2 7.4 9.8 91 0.7 SSE 20 28 11 15 1019.1 1018.3 7.2
21/12:00pm 11.3 7.9 9.0 86 1.2 SSE 17 24 9 13 1019.8 1018.9 4.2
21/11:30am 11.9 6.6 8.6 80 1.7 SSE 26 35 14 19 1019.5 1018.6 3.2
21/11:00am 12.0 5.4 8.5 79 1.8 S 33 52 18 28 1019.0 1018.2 2.8
21/10:56am 12.0 5.4 8.7 80 1.7 S 33 52 18 28 1018.9 1018.0 2.8
21/10:30am 11.2 5.1 8.4 83 1.4 SSE 30 43 16 23 1019.1 1018.3 2.6
21/10:12am 11.7 5.9 8.0 78 1.9 SSE 28 48 15 26 1019.5 1018.6 1.8
21/10:00am 11.5 5.8 8.4 81 1.6 SSE 28 43 15 23 1019.2 1018.4 1.6
21/09:33am 11.4 5.7 8.3 81 1.6 S 28 46 15 25 1019.1 1018.3 1.0
21/09:30am 11.5 5.7 8.0 79 1.8 S 28 39 15 21 1018.9 1018.0 0.8
21/09:00am 11.6 5.8 7.9 78 1.8 S 28 44 15 24 1020.0 1019.1 11.8
21/08:30am 11.9 5.6 7.6 75 2.1 SSE 30 54 16 29 1019.5 1018.6 11.4
21/08:00am 12.1 5.7 8.4 78 1.9 SSE 32 52 17 28 1018.9 1018.0 11.2
21/07:59am 12.1 5.6 8.2 77 2.0 SSE 32 52 17 28 1018.9 1018.0 11.2
21/07:30am 12.2 6.9 8.3 77 2.0 S 26 35 14 19 1019.0 1018.2 11.2
21/07:00am 11.5 6.7 8.9 84 1.3 S 24 35 13 19 1018.9 1018.0 11.2
21/06:30am 11.0 6.7 9.4 90 0.8 S 22 32 12 17 1018.6 1017.7 10.8
21/06:10am 11.3 5.9 9.6 89 0.9 S 28 46 15 25 1018.1 1017.2 10.0
21/06:00am 11.4 7.2 9.8 90 0.8 SSE 22 30 12 16 1018.7 1017.8 9.4
21/05:30am 11.2 7.1 10.1 93 0.6 S 22 30 12 16 1018.6 1017.7 8.2
21/05:00am 11.1 7.9 9.9 92 0.6 S 17 20 9 11 1019.4 1018.5 7.4
21/04:30am 11.8 8.7 9.0 83 1.4 S 15 20 8 11 1019.2 1018.4 6.4
21/04:00am 12.5 7.6 8.4 76 2.1 SSE 24 37 13 20 1019.1 1018.3 6.4
21/03:48am 13.0 7.2 7.9 71 2.6 SSE 28 46 15 25 1019.0 1018.2 6.2
21/03:30am 13.7 9.5 8.3 70 2.8 SSE 20 39 11 21 1018.9 1018.0 6.2
21/03:00am 13.1 10.5 9.5 79 1.9 S 13 19 7 10 1019.1 1018.3 6.2
21/02:30am 12.6 10.2 10.1 85 1.3 SE 13 24 7 13 1019.4 1018.5 6.2
21/02:00am 12.7 9.2 10.1 84 1.4 SSE 19 30 10 16 1019.2 1018.4 5.6
21/01:30am 13.2 9.6 10.0 81 1.7 SSE 19 33 10 18 1019.5 1018.6 5.6
21/01:00am 13.5 9.9 9.9 79 1.9 SSE 19 30 10 16 1019.6 1018.7 5.6
21/12:30am 13.4 9.8 10.6 83 1.5 SSE 20 28 11 15 1019.9 1019.0 5.6
21/12:00am 13.2 8.9 10.6 84 1.4 SSE 24 44 13 24 1020.0 1019.1 5.4
 
Date/Time
EST
Temp
°C
App
Temp
°C
Dew
Point
Rel
Hum
%
Delta-T
°C
Wind Press
QNH
hPa
Press
MSL
hPa
Rain
since 9 am
mm
Dir
 
Spd
km/h
Gust
km/h
Spd
kts
Gust
kts
20/11:30pm 13.7 8.8 9.9 78 2.0 SSE 26 39 14 21 1019.7 1018.8 5.0
20/11:12pm 13.9 8.5 9.5 75 2.3 SSE 28 48 15 26 1019.7 1018.8 5.0
20/11:00pm 14.1 8.6 9.3 73 2.5 SSE 28 44 15 24 1019.8 1018.9 5.0
20/10:30pm 14.2 7.9 9.0 71 2.7 SSE 32 50 17 27 1020.0 1019.1 5.0
20/10:08pm 14.0 8.6 9.4 74 2.4 SSE 28 50 15 27 1020.0 1019.1 5.0
20/10:00pm 13.9 8.4 9.3 74 2.4 SSE 28 43 15 23 1020.2 1019.3 4.8
20/09:30pm 14.4 9.5 8.6 68 3.0 SSE 24 35 13 19 1020.6 1019.7 4.8
20/09:00pm 14.7 9.5 8.9 68 3.0 SE 26 41 14 22 1020.5 1019.6 4.8
20/08:30pm 15.0 10.2 8.7 66 3.3 SSE 24 50 13 27 1020.3 1019.4 4.8
20/08:00pm 15.0 10.2 8.7 66 3.3 SE 24 44 13 24 1020.1 1019.2 4.8
20/07:30pm 14.5 10.5 9.1 70 2.8 SSE 20 35 11 19 1020.1 1019.2 4.8
20/07:00pm 14.3 10.4 9.3 72 2.6 SSE 20 35 11 19 1020.0 1019.1 4.8
20/06:30pm 13.8 10.0 9.8 77 2.1 SSE 20 32 11 17 1020.1 1019.2 4.8
20/06:05pm 14.0 8.6 9.4 74 2.4 SSE 28 46 15 25 1019.8 1018.9 4.8
20/06:00pm 14.0 8.1 9.2 73 2.5 SSE 30 46 16 25 1019.6 1018.7 4.8
20/05:44pm 14.2 8.7 9.2 72 2.6 SSE 28 50 15 27 1019.5 1018.6 4.8
20/05:30pm 14.1 8.2 9.1 72 2.6 SSE 30 44 16 24 1019.7 1018.8 4.8
20/05:01pm 14.1 7.6 8.9 71 2.7 SSE 33 52 18 28 1019.8 1018.9 4.8
20/05:00pm 14.2 7.3 8.8 70 2.8 SSE 35 52 19 28 1019.8 1018.9 4.8
20/04:42pm 14.3 8.8 9.1 71 2.7 SSE 28 48 15 26 1019.6 1018.7 4.8
20/04:30pm 14.0 8.5 9.2 73 2.5 SSE 28 41 15 22 1019.8 1018.9 4.8
20/04:00pm 14.6 8.7 9.0 69 2.9 SE 30 44 16 24 1020.0 1019.1 4.8
20/03:42pm 14.6 8.7 9.0 69 2.9 SSE 30 50 16 27 1019.8 1018.9 4.8
20/03:30pm 14.5 8.6 9.1 70 2.8 SSE 30 43 16 23 1019.8 1018.9 4.8
20/03:00pm 14.7 10.0 9.1 69 2.9 SSE 24 48 13 26 1020.1 1019.2 4.8
20/02:30pm 14.8 11.0 9.8 72 2.7 SE 20 35 11 19 1020.4 1019.5 4.8
20/02:00pm 14.6 11.2 10.4 76 2.2 SE 19 32 10 17 1020.6 1019.7 4.8
20/01:30pm 13.9 12.3 11.6 86 1.3 ESE 11 19 6 10 1020.8 1019.9 4.8
20/01:00pm 13.3 11.5 12.2 93 0.6 SE 13 22 7 12 1021.1 1020.3 4.8
20/12:41pm 12.9 12.6 12.6 98 0.2 SE 6 11 3 6 1021.4 1020.6 4.6
20/12:30pm 12.4 11.9 12.1 98 0.2 N 6 9 3 5 1021.9 1021.0 4.4
20/12:00pm 11.9 10.3 11.6 98 0.2 S 11 15 6 8 1022.1 1021.2 4.0
20/11:30am 11.8 10.2 11.5 98 0.2 S 11 15 6 8 1022.8 1022.0 3.4
20/11:00am 11.3 9.2 11.0 98 0.2 S 13 17 7 9 1023.1 1022.3 3.0
20/10:42am 10.9 9.4 10.6 98 0.2 S 9 15 5 8 1023.4 1022.6 2.8
20/10:30am 10.8 8.9 10.5 98 0.2 S 11 15 6 8 1023.2 1022.4 2.6
20/10:00am 10.7 9.2 10.4 98 0.2 SSE 9 15 5 8 1023.6 1022.8 1.6
20/09:30am 10.9 8.6 10.6 98 0.2 SSE 13 20 7 11 1023.7 1022.9 0.4
20/09:00am 10.5 8.9 10.2 98 0.2 SSE 9 13 5 7 1024.1 1023.2 8.0
20/08:56am 10.6 9.0 10.3 98 0.2 SSE 9 13 5 7 1024.0 1023.1 8.0
20/08:34am 10.4 8.4 10.1 98 0.2 SSE 11 15 6 8 1024.0 1023.1 6.8
20/08:30am 10.4 8.4 10.1 98 0.2 SSE 11 15 6 8 1023.9 1023.0 6.8
20/08:00am 10.5 8.1 10.2 98 0.2 S 13 19 7 10 1023.7 1022.9 5.6
20/07:30am 10.4 9.1 10.1 98 0.2 SSW 7 11 4 6 1023.6 1022.8 4.2
20/07:04am 10.4 9.1 10.1 98 0.2 SSW 7 9 4 5 1023.5 1022.7 3.8
20/07:00am 10.3 9.0 10.0 98 0.2 SSW 7 9 4 5 1023.5 1022.7 3.6
20/06:59am 10.3 9.0 10.0 98 0.2 SSW 7 9 4 5 1023.5 1022.7 3.6
20/06:30am 10.4 8.8 10.1 98 0.2 SSE 9 13 5 7 1023.3 1022.5 2.8
20/06:00am 10.6 8.6 10.0 96 0.3 SSW 11 13 6 7 1023.4 1022.6 2.4
20/05:30am 10.7 8.4 9.1 90 0.8 SSE 11 20 6 11 1023.1 1022.3 2.2
20/05:00am 11.1 7.6 8.7 85 1.2 SE 17 26 9 14 1023.1 1022.3 2.2
20/04:30am 11.2 7.7 8.9 86 1.2 SE 17 30 9 16 1023.1 1022.3 2.2
20/04:00am 11.0 10.6 9.6 91 0.7 E 2 9 1 5 1023.1 1022.3 2.2
20/03:30am 10.7 9.5 9.6 93 0.6 SSE 6 9 3 5 1023.1 1022.3 2.0
20/03:26am 10.7 9.5 9.6 93 0.6 SSE 6 11 3 6 1023.1 1022.3 2.0
20/03:00am 10.9 9.8 9.8 93 0.6 SE 6 11 3 6 1023.0 1022.2 2.0
20/02:30am 10.8 8.1 10.2 96 0.3 S 15 20 8 11 1023.0 1022.2 2.0
20/02:00am 10.7 8.0 10.4 98 0.2 SSE 15 20 8 11 1023.3 1022.5 1.8
20/01:30am 11.0 8.6 10.1 94 0.5 SE 13 26 7 14 1023.7 1022.9 0.8
20/01:24am 11.0 8.6 10.1 94 0.5 SE 13 19 7 10 1023.9 1023.0 0.6
20/01:08am 11.3 10.3 11.0 98 0.2 S 7 11 4 6 1024.0 1023.1 0.2
20/01:00am 11.3 10.4 10.8 97 0.3 S 6 9 3 5 1023.9 1023.0 0.0
20/12:56am 11.3 10.2 10.5 95 0.4 SSE 7 13 4 7 1023.9 1023.0 0.0
20/12:30am 11.6 9.1 9.7 88 1.0 SSE 13 20 7 11 1023.9 1023.0 0.0
20/12:00am 12.0 7.6 8.8 81 1.6 SSE 22 30 12 16 1024.3 1023.4 0.0
 
Date/Time
EST
Temp
°C
App
Temp
°C
Dew
Point
Rel
Hum
%
Delta-T
°C
Wind Press
QNH
hPa
Press
MSL
hPa
Rain
since 9 am
mm
Dir
 
Spd
km/h
Gust
km/h
Spd
kts
Gust
kts
19/11:59pm 12.0 7.5 8.7 80 1.7 SSE 22 28 12 15 1024.2 1023.3 0.0
19/11:30pm 12.8 9.8 7.5 70 2.7 SSE 13 22 7 12 1024.1 1023.2 0.0
19/11:00pm 12.7 9.9 8.4 75 2.2 SSW 13 15 7 8 1024.1 1023.2 0.0
19/10:30pm 12.4 10.4 8.7 78 1.9 SSW 9 11 5 6 1024.3 1023.4 0.0
19/10:00pm 13.0 9.0 8.3 73 2.4 S 19 24 10 13 1024.2 1023.3 0.0
19/09:30pm 13.1 10.1 9.2 77 2.0 SSW 15 19 8 10 1024.2 1023.3 0.0
19/09:00pm 13.0 9.6 9.1 77 2.0 S 17 20 9 11 1024.0 1023.1 0.0
19/08:30pm 13.0 9.6 9.3 78 1.9 SSW 17 24 9 13 1023.5 1022.7 0.0
19/08:00pm 13.2 10.7 9.6 79 1.9 SSW 13 20 7 11 1023.5 1022.7 0.0
19/07:30pm 13.2 10.7 9.8 80 1.8 SSW 13 17 7 9 1023.2 1022.4 0.0
19/07:00pm 13.8 10.9 9.6 76 2.2 SSW 15 20 8 11 1022.7 1021.8 0.0
19/06:30pm 14.4 11.1 9.6 73 2.5 SW 17 20 9 11 1022.4 1021.5 0.0
19/06:00pm 14.9 11.4 10.3 74 2.5 WSW 19 24 10 13 1021.7 1020.8 0.0
19/05:30pm 16.1 12.0 10.0 67 3.3 WSW 22 30 12 16 1021.3 1020.5 0.0
19/05:00pm 18.1 14.5 10.0 59 4.4 SW 19 28 10 15 1021.1 1020.3 0.0
19/04:30pm 19.0 15.1 9.5 54 5.1 SSW 20 24 11 13 1020.7 1019.8 0.0
19/04:00pm 19.3 14.9 10.3 56 4.9 WSW 24 32 13 17 1020.6 1019.7 0.0
19/03:30pm 19.8 14.9 10.0 53 5.4 WSW 26 33 14 18 1020.2 1019.3 0.0
19/03:00pm 19.4 14.2 10.1 55 5.1 WSW 28 35 15 19 1020.1 1019.2 0.0
19/02:30pm 20.0 16.3 10.1 53 5.4 WSW 20 28 11 15 1020.0 1019.1 0.0
19/02:00pm 19.9 17.1 8.6 48 6.0 WSW 13 24 7 13 1019.9 1019.0 0.0
19/01:30pm 19.9 15.7 8.3 47 6.2 WSW 20 30 11 16 1020.0 1019.1 0.0
19/01:00pm 19.1 14.9 8.1 49 5.8 SW 20 28 11 15 1020.0 1019.1 0.0
19/12:30pm 19.5 15.5 9.1 51 5.6 WSW 20 30 11 16 1020.3 1019.4 0.0
19/12:00pm 19.7 15.8 9.3 51 5.6 WSW 20 33 11 18 1020.6 1019.7 0.0
19/11:30am 19.0 15.2 8.9 52 5.4 SW 19 28 10 15 1020.7 1019.8 0.0
19/11:00am 18.6 16.2 8.8 53 5.2 W 11 19 6 10 1020.9 1020.1 0.0
19/10:30am 18.4 17.2 9.7 57 4.7 SW 6 13 3 7 1020.9 1020.1 0.0
19/10:00am 17.1 14.5 9.5 61 4.1 S 13 17 7 9 1021.1 1020.3 0.0
19/09:30am 16.7 13.0 9.4 62 3.9 SSW 19 26 10 14 1020.9 1020.1 0.0
19/09:00am 16.2 13.5 10.5 69 3.1 S 15 19 8 10 1020.7 1019.8 18.8
19/08:30am 16.0 15.3 13.1 83 1.7 S 9 13 5 7 1020.4 1019.5 18.8
19/08:00am 15.5 16.8 15.2 98 0.2 W 2 11 1 6 1019.8 1018.9 18.8
19/07:30am 15.3 15.6 15.0 98 0.2 NW 7 11 4 6 1019.2 1018.4 18.8
19/07:00am 15.4 16.7 15.2 99 0.1 SSE 2 6 1 3 1018.7 1017.8 18.8
19/06:44am 15.2 15.5 15.0 99 0.1 WNW 7 9 4 5 1018.6 1017.7 18.8
19/06:30am 15.3 15.3 15.1 99 0.1 WNW 9 13 5 7 1018.6 1017.7 18.8
19/06:00am 15.4 15.4 15.2 99 0.1 NW 9 11 5 6 1018.1 1017.2 18.6
19/05:30am 15.4 16.0 15.2 99 0.1 NNW 6 7 3 4 1017.9 1017.0 17.4
19/05:00am 15.1 15.4 14.9 99 0.1 N 7 9 4 5 1017.5 1016.6 17.4
19/04:30am 14.9 15.1 14.7 99 0.1 N 7 9 4 5 1017.2 1016.2 17.4
19/04:19am 14.3 14.3 14.1 99 0.1 NNW 7 9 4 5 1017.0 1016.1 17.4
19/04:01am 14.6 15.6 14.4 99 0.1 NW 2 6 1 3 1016.9 1016.0 17.4
19/04:00am 14.6 15.6 14.4 99 0.1 NW 2 7 1 4 1016.9 1016.0 17.4
19/03:42am 14.8 15.0 14.6 99 0.1 WNW 7 11 4 6 1016.9 1016.0 17.4
19/03:38am 14.8 14.6 14.6 99 0.1 NW 9 11 5 6 1017.0 1016.1 17.4
19/03:30am 14.8 14.2 14.6 99 0.1 WNW 11 11 6 6 1016.9 1016.0 17.4
19/03:26am 14.9 14.3 14.7 99 0.1 WNW 11 11 6 6 1017.0 1016.1 17.4
19/03:00am 15.1 14.2 14.9 99 0.1 NNW 13 13 7 7 1017.2 1016.2 17.4
19/02:36am 15.6 16.0 15.4 99 0.1 WNW 7 9 4 5 1017.2 1016.2 17.4
19/02:30am 15.7 16.2 15.5 99 0.1 WNW 7 9 4 5 1017.2 1016.2 17.4
19/02:23am 15.7 15.8 15.5 99 0.1 NW 9 11 5 6 1017.3 1016.4 17.4
19/02:00am 15.7 15.4 15.5 99 0.1 NW 11 13 6 7 1017.7 1016.8 17.4
19/01:30am 15.9 15.3 15.7 99 0.1 NW 13 17 7 9 1017.8 1016.9 17.2
19/01:00am 16.1 14.8 15.9 99 0.1 NNW 17 20 9 11 1018.4 1017.5 17.2
19/12:30am 16.2 15.4 16.0 99 0.1 NNW 15 19 8 10 1018.2 1017.3 17.2
19/12:26am 16.2 15.0 16.0 99 0.1 NNW 17 19 9 10 1018.2 1017.3 17.2
19/12:00am 16.2 16.1 16.0 99 0.1 NNW 11 15 6 8 1018.3 1017.4 17.2
 
Date/Time
EST
Temp
°C
App
Temp
°C
Dew
Point
Rel
Hum
%
Delta-T
°C
Wind Press
QNH
hPa
Press
MSL
hPa
Rain
since 9 am
mm
Dir
 
Spd
km/h
Gust
km/h
Spd
kts
Gust
kts
18/11:49pm 16.3 16.6 16.1 99 0.1 N 9 11 5 6 1018.3 1017.4 17.2
18/11:44pm 16.2 16.1 16.0 99 0.1 N 11 15 6 8 1018.1 1017.2 17.2
18/11:32pm 16.3 15.9 16.1 99 0.1 NNW 13 15 7 8 1018.4 1017.5 17.2
18/11:30pm 16.3 15.9 16.1 99 0.1 N 13 17 7 9 1018.4 1017.5 17.0
18/11:00pm 16.3 16.6 16.1 99 0.1 N 9 13 5 7 1018.5 1017.6 16.2
18/10:46pm 16.4 17.1 16.2 99 0.1 N 7 9 4 5 1018.4 1017.5 15.8
18/10:30pm 16.4 16.8 16.2 99 0.1 N 9 11 5 6 1018.9 1018.0 15.6
18/10:14pm 16.5 16.9 16.3 99 0.1 N 9 11 5 6 1019.0 1018.2 15.2
18/10:00pm 16.5 16.5 16.3 99 0.1 N 11 15 6 8 1018.8 1017.9 14.6

Other Formats:

Comma delimited format used in spreadsheet applications
http://www.bom.gov.au/fwo/IDN60801/IDN60801.94727.axf

JavaScript Object Notation format (JSON) in row-major order
http://www.bom.gov.au/fwo/IDN60801/IDN60801.94727.json